Time;durP1;ratioP1;P1;durP2;ratioP2;P2;SDS_P1;SDS_P2;PMS_P1;PMS_P2;Temp;Humidity;BMP_temperature;BMP_pressure;BME280_temperature;BME280_humidity;BME280_pressure;Samples;Min_cycle;Max_cycle;Signal;HPM_P1;HPM_P2
2021/01/04 00:01:20;;;;;;;697.78;79.47;;;;;;;9.71;100.00;97179.13;5021142;28;19918;-60
2021/01/04 00:04:04;;;;;;;492.10;75.25;;;;;;;9.45;100.00;97170.66;5004429;28;20038;-58
2021/01/04 00:07:15;;;;;;;618.33;79.57;;;;;;;8.78;100.00;97085.34;5020419;28;20050;-58
2021/01/04 00:09:54;;;;;;;649.22;81.47;;;;;;;9.52;100.00;97181.88;5005713;28;20033;-59
2021/01/04 00:12:55;;;;;;;545.33;71.55;;;;;;;9.65;100.00;97186.13;5004113;28;20037;-61
2021/01/04 00:15:34;;;;;;;798.53;83.97;;;;;;;9.45;100.00;97175.38;5004939;28;20053;-60
2021/01/04 00:18:12;;;;;;;824.92;87.43;;;;;;;9.61;100.00;97178.91;5005853;28;20529;-59
2021/01/04 00:20:48;;;;;;;905.90;93.82;;;;;;;9.59;100.00;97162.69;5004070;28;20575;-59
2021/01/04 00:23:37;;;;;;;913.88;96.88;;;;;;;9.60;100.00;97171.75;5004361;28;20077;-58
2021/01/04 00:26:13;;;;;;;695.08;78.65;;;;;;;9.73;100.00;97171.28;5005235;28;20528;-58
2021/01/04 00:28:39;;;;;;;777.38;90.32;;;;;;;9.55;100.00;97170.06;5020238;28;20500;-59
2021/01/04 00:31:28;;;;;;;772.80;86.18;;;;;;;9.60;100.00;97178.09;5005209;28;20030;-58
2021/01/04 00:34:02;;;;;;;826.50;89.85;;;;;;;9.59;100.00;97176.50;4986183;28;20030;-59
2021/01/04 00:36:31;;;;;;;888.13;91.35;;;;;;;9.52;100.00;97176.34;4985873;28;20046;-59
2021/01/04 00:39:54;;;;;;;450.92;65.10;;;;;;;9.50;100.00;97184.19;4986116;28;20049;-60
2021/01/04 00:42:43;;;;;;;709.65;81.25;;;;;;;9.40;100.00;97179.22;4944236;29;20043;-61
2021/01/04 00:45:15;;;;;;;644.20;76.28;;;;;;;9.40;100.00;97165.41;4955533;28;20038;-62
2021/01/04 00:47:58;;;;;;;540.88;71.63;;;;;;;9.60;100.00;97194.69;4999951;28;20116;-60
2021/01/04 00:50:36;;;;;;;841.33;81.60;;;;;;;9.64;100.00;97184.50;5005352;28;20207;-60
2021/01/04 00:53:11;;;;;;;735.30;87.70;;;;;;;9.32;100.00;97138.75;5003635;28;20065;-61
2021/01/04 00:56:06;;;;;;;916.38;99.20;;;;;;;9.60;100.00;97191.94;5004986;28;20533;-59
2021/01/04 00:58:53;;;;;;;714.53;91.85;;;;;;;9.62;100.00;97192.38;5003485;28;20060;-59
2021/01/04 01:01:29;;;;;;;714.42;88.35;;;;;;;9.42;100.00;97154.75;5005083;28;20494;-59
2021/01/04 01:04:23;;;;;;;914.92;92.72;;;;;;;9.62;100.00;97195.16;5003804;28;20041;-63
2021/01/04 01:07:00;;;;;;;598.67;76.25;;;;;;;9.66;100.00;97193.25;5004969;28;20033;-62
2021/01/04 01:09:29;;;;;;;775.53;90.75;;;;;;;9.53;100.00;97175.16;5019907;28;20029;-62
2021/01/04 01:12:19;;;;;;;873.75;96.78;;;;;;;9.66;100.00;97187.72;5019581;28;20068;-63
2021/01/04 01:15:03;;;;;;;780.85;91.90;;;;;;;9.64;100.00;97189.25;5003259;28;20045;-63
2021/01/04 01:17:44;;;;;;;820.88;96.95;;;;;;;9.63;100.00;97188.44;5019318;28;20046;-63
2021/01/04 01:20:16;;;;;;;915.80;98.07;;;;;;;9.21;100.00;97134.94;5004610;28;20038;-63
2021/01/04 01:22:43;;;;;;;912.72;97.82;;;;;;;7.31;100.00;96817.59;5019697;28;20042;-62
2021/01/04 01:25:10;;;;;;;729.40;84.82;;;;;;;9.64;100.00;97183.72;5004368;28;20044;-62
2021/01/04 01:27:57;;;;;;;874.15;96.95;;;;;;;9.61;100.00;97174.16;5019668;28;20038;-63
2021/01/04 01:30:32;;;;;;;894.28;99.13;;;;;;;9.55;100.00;97180.34;5004581;28;20493;-61
2021/01/04 01:33:13;;;;;;;859.13;99.10;;;;;;;9.13;100.00;97120.16;5003016;28;20551;-61
2021/01/04 01:36:00;;;;;;;581.85;85.43;;;;;;;9.48;100.00;97177.41;5004301;28;20045;-61
2021/01/04 01:39:02;;;;;;;717.88;92.28;;;;;;;9.54;100.00;97162.94;5004516;28;20041;-62
2021/01/04 01:41:46;;;;;;;659.08;90.90;;;;;;;9.52;100.00;97154.22;5019358;28;20046;-62
2021/01/04 01:44:33;;;;;;;474.77;75.82;;;;;;;9.45;100.00;97151.31;5006719;28;20084;-62
2021/01/04 01:47:33;;;;;;;680.38;79.38;;;;;;;9.57;100.00;97144.81;5023225;28;20076;-62
2021/01/04 01:49:58;;;;;;;864.90;93.57;;;;;;;9.57;100.00;97144.81;4988644;28;20053;-61
2021/01/04 01:52:35;;;;;;;756.95;90.40;;;;;;;9.56;100.00;97138.50;4989129;28;20043;-62
2021/01/04 01:55:27;;;;;;;503.27;86.22;;;;;;;9.61;100.00;97137.44;4988578;28;20062;-64
2021/01/04 01:58:16;;;;;;;800.50;103.65;;;;;;;9.70;100.00;97133.28;4986509;28;20054;-62
2021/01/04 02:00:48;;;;;;;915.38;115.80;;;;;;;9.66;100.00;97121.34;4988707;28;20104;-62
2021/01/04 02:03:23;;;;;;;714.97;99.32;;;;;;;9.63;100.00;97116.53;4989037;28;20034;-63
2021/01/04 02:06:14;;;;;;;792.60;104.88;;;;;;;9.62;100.00;97120.47;4988370;28;20042;-63
2021/01/04 02:08:43;;;;;;;493.65;87.05;;;;;;;9.09;100.00;97018.97;4987117;28;20137;-64
2021/01/04 02:11:26;;;;;;;941.33;118.97;;;;;;;9.61;100.00;97105.03;4988359;28;20564;-62
2021/01/04 02:14:21;;;;;;;523.78;93.35;;;;;;;9.72;100.00;97103.28;4987092;28;20046;-62
2021/01/04 02:17:00;;;;;;;622.08;106.18;;;;;;;8.88;100.00;97046.13;4971991;28;20448;-63
2021/01/04 02:19:38;;;;;;;535.92;108.35;;;;;;;9.49;100.00;97109.88;4986830;28;20045;-62
2021/01/04 02:22:42;;;;;;;636.45;117.47;;;;;;;9.50;100.00;97108.75;4986755;28;20119;-62
2021/01/04 02:25:08;;;;;;;;;;;;;;;9.56;100.00;97102.56;4988609;28;20038;-63
2021/01/04 02:27:44;;;;;;;639.42;111.97;;;;;;;8.97;100.00;97005.28;4988276;28;20463;-63
2021/01/04 02:30:10;;;;;;;968.33;131.60;;;;;;;9.48;100.00;97084.22;4988078;28;20034;-63
2021/01/04 02:32:36;;;;;;;788.55;125.07;;;;;;;9.50;100.00;97084.63;4986651;28;20249;-63
2021/01/04 02:35:02;;;;;;;627.78;110.88;;;;;;;9.53;100.00;97089.44;4987550;28;20141;-63
2021/01/04 02:37:27;;;;;;;593.00;109.20;;;;;;;9.24;100.00;97043.00;4988188;28;20035;-62
2021/01/04 02:39:58;;;;;;;803.03;127.70;;;;;;;6.84;100.00;96657.06;4986385;28;20612;-62
2021/01/04 02:42:47;;;;;;;792.05;106.85;;;;;;;9.76;100.00;97086.78;4986361;28;20513;-62
2021/01/04 02:45:22;;;;;;;891.85;107.63;;;;;;;9.57;100.00;97075.69;4994493;28;20034;-62
2021/01/04 02:48:18;;;;;;;759.72;116.40;;;;;;;9.54;100.00;97079.19;5005954;28;20096;-62
2021/01/04 02:50:49;;;;;;;590.15;102.82;;;;;;;9.18;100.00;97027.88;5007212;28;20046;-61
2021/01/04 02:53:38;;;;;;;562.55;99.25;;;;;;;9.60;100.00;97084.06;5005935;28;20052;-61
2021/01/04 02:56:13;;;;;;;797.97;112.72;;;;;;;9.62;100.00;97072.66;5022657;28;20409;-62
2021/01/04 02:58:49;;;;;;;852.53;129.93;;;;;;;9.48;100.00;97064.88;5005754;28;20124;-63
2021/01/04 03:01:19;;;;;;;906.45;173.20;;;;;;;9.55;100.00;97065.00;5007437;28;20417;-62
2021/01/04 03:03:47;;;;;;;996.88;122.13;;;;;;;9.55;100.00;97067.75;5007389;28;20117;-63
2021/01/04 03:06:17;;;;;;;847.63;118.65;;;;;;;9.56;100.00;97077.69;5007002;28;20038;-62
2021/01/04 03:08:42;;;;;;;880.47;124.63;;;;;;;8.97;100.00;96980.44;5007226;28;20114;-62
2021/01/04 03:11:14;;;;;;;927.83;110.35;;;;;;;9.71;100.00;97074.03;5005280;28;20121;-63
2021/01/04 03:14:32;;;;;;;799.55;94.18;;;;;;;9.61;100.00;97074.59;5007214;28;20041;-62
2021/01/04 03:17:20;;;;;;;878.67;99.15;;;;;;;9.54;100.00;97076.44;4998399;28;20501;-63
2021/01/04 03:19:52;;;;;;;731.45;90.47;;;;;;;9.55;100.00;97075.28;5006539;28;20108;-63
2021/01/04 03:22:17;;;;;;;575.28;82.55;;;;;;;9.54;100.00;97068.94;5005151;28;20141;-63
2021/01/04 03:24:50;;;;;;;693.03;91.10;;;;;;;9.56;100.00;97069.38;5006709;28;20529;-63
2021/01/04 03:27:24;;;;;;;636.63;98.22;;;;;;;8.95;100.00;96986.31;5006817;28;20045;-63
2021/01/04 03:29:50;;;;;;;926.63;124.43;;;;;;;9.52;100.00;97071.25;5006333;28;20046;-62
2021/01/04 03:32:16;;;;;;;778.13;199.32;;;;;;;9.57;100.00;97068.22;5006768;28;20045;-62
2021/01/04 03:34:41;;;;;;;1298.20;216.93;;;;;;;9.54;100.00;97055.13;5006407;28;20033;-63
2021/01/04 03:37:07;;;;;;;826.80;161.35;;;;;;;9.25;100.00;96992.09;5006511;28;20033;-61
2021/01/04 03:39:32;;;;;;;705.38;140.95;;;;;;;9.47;100.00;97030.06;5004636;28;20429;-62
2021/01/04 03:41:59;;;;;;;800.72;130.20;;;;;;;9.29;100.00;97000.47;5006263;28;20255;-62
2021/01/04 03:44:27;;;;;;;906.35;130.98;;;;;;;9.44;100.00;97039.09;5006175;28;20404;-64
2021/01/04 03:46:53;;;;;;;1077.65;149.80;;;;;;;9.49;100.00;97038.81;5006217;28;20464;-62
2021/01/04 03:49:19;;;;;;;859.38;132.48;;;;;;;9.38;100.00;97012.91;5006328;28;20034;-63
2021/01/04 03:51:49;;;;;;;903.40;131.07;;;;;;;8.89;100.00;96938.06;5006140;28;20462;-63
2021/01/04 03:54:15;;;;;;;855.55;128.30;;;;;;;9.18;100.00;96994.72;5006330;28;20037;-62
2021/01/04 03:56:40;;;;;;;995.40;126.72;;;;;;;9.33;100.00;96985.53;5020747;28;20045;-63
2021/01/04 03:59:05;;;;;;;831.03;116.90;;;;;;;9.25;100.00;96988.53;5004576;28;20045;-62
2021/01/04 04:01:31;;;;;;;834.22;112.95;;;;;;;9.46;100.00;97000.81;5020831;28;20108;-62
2021/01/04 04:03:56;;;;;;;843.70;112.00;;;;;;;9.48;100.00;97026.16;5004659;28;20042;-62
2021/01/04 04:06:25;;;;;;;696.67;103.53;;;;;;;9.46;100.00;97016.59;5004027;28;20116;-63
2021/01/04 04:08:50;;;;;;;736.50;107.50;;;;;;;9.28;100.00;96987.81;5020907;28;20044;-62
2021/01/04 04:11:16;;;;;;;892.70;119.00;;;;;;;8.92;100.00;96980.72;5004043;28;20037;-63
2021/01/04 04:13:41;;;;;;;905.95;118.38;;;;;;;9.00;100.00;96954.84;5004217;28;20033;-63
2021/01/04 04:16:07;;;;;;;585.63;94.50;;;;;;;8.84;100.00;96934.75;5005294;28;20112;-62
2021/01/04 04:18:32;;;;;;;709.88;101.78;;;;;;;9.37;100.00;97016.84;5005737;28;20037;-63
2021/01/04 04:20:57;;;;;;;759.60;116.07;;;;;;;8.92;100.00;96964.13;5005739;28;20109;-62
2021/01/04 04:23:23;;;;;;;857.17;118.07;;;;;;;9.55;100.00;97037.34;5020767;28;20398;-63
2021/01/04 04:25:48;;;;;;;719.08;106.97;;;;;;;9.50;100.00;97045.94;5005418;28;20037;-62
2021/01/04 04:28:14;;;;;;;912.05;113.00;;;;;;;8.92;100.00;96939.28;5005600;28;20053;-63
2021/01/04 04:30:39;;;;;;;435.85;86.15;;;;;;;9.06;100.00;96986.53;5003667;28;20034;-62
2021/01/04 04:33:04;;;;;;;797.70;108.25;;;;;;;9.54;100.00;97035.75;5005299;28;20511;-63
2021/01/04 04:35:30;;;;;;;423.02;82.25;;;;;;;9.56;100.00;97038.16;5005229;28;20049;-62
2021/01/04 04:37:58;;;;;;;494.75;91.63;;;;;;;9.58;100.00;97038.59;5020118;28;20497;-63
2021/01/04 04:40:32;;;;;;;784.20;110.70;;;;;;;9.62;100.00;97031.97;5003632;28;20088;-63
2021/01/04 04:43:28;;;;;;;451.67;94.15;;;;;;;9.58;100.00;97035.84;5005549;28;20042;-63
2021/01/04 04:45:55;;;;;;;857.13;121.63;;;;;;;9.58;100.00;97028.31;5017761;28;20048;-63
2021/01/04 04:48:34;;;;;;;734.08;109.90;;;;;;;9.67;100.00;97023.41;5005408;28;20045;-62
2021/01/04 04:51:21;;;;;;;583.67;96.38;;;;;;;9.63;100.00;97021.69;5005255;28;20038;-62
2021/01/04 04:53:59;;;;;;;717.53;110.72;;;;;;;9.68;100.00;97024.97;5003538;28;20548;-63
2021/01/04 04:56:40;;;;;;;712.95;116.63;;;;;;;9.68;100.00;97024.97;5003247;28;20045;-62
2021/01/04 04:59:12;;;;;;;859.05;135.35;;;;;;;9.71;100.00;97024.25;5005033;28;20074;-63
2021/01/04 05:01:54;;;;;;;570.47;114.22;;;;;;;9.72;100.00;97023.06;5003256;28;20041;-62
2021/01/04 05:04:59;;;;;;;605.92;114.43;;;;;;;9.71;100.00;97018.72;5003208;28;20080;-63
2021/01/04 05:07:35;;;;;;;700.33;127.38;;;;;;;9.69;100.00;97020.25;5003427;28;20073;-62
2021/01/04 05:10:06;;;;;;;623.80;129.63;;;;;;;9.57;100.00;97007.38;5005320;28;20501;-62
2021/01/04 05:12:41;;;;;;;695.42;150.35;;;;;;;9.34;100.00;96998.22;5003500;28;20037;-63
2021/01/04 05:15:19;;;;;;;695.38;128.50;;;;;;;9.65;100.00;97031.25;5004902;28;20394;-62
2021/01/04 05:18:25;;;;;;;864.95;153.82;;;;;;;9.77;100.00;97022.78;5003534;28;20048;-63
2021/01/04 05:20:50;;;;;;;576.13;126.05;;;;;;;9.68;100.00;97019.44;5005116;28;20030;-62
2021/01/04 05:23:28;;;;;;;643.13;115.10;;;;;;;9.59;100.00;97012.53;5004875;28;20432;-62
2021/01/04 05:26:17;;;;;;;517.28;100.00;;;;;;;9.54;100.00;97018.34;5003511;28;21016;-63
2021/01/04 05:29:09;;;;;;;574.40;98.35;;;;;;;9.58;100.00;97031.09;5004765;28;20037;-63
2021/01/04 05:31:49;;;;;;;886.60;114.15;;;;;;;9.65;100.00;97025.72;4998349;28;20116;-63
2021/01/04 05:34:44;;;;;;;758.28;104.65;;;;;;;9.68;100.00;97024.97;5004745;28;20034;-62
2021/01/04 05:37:34;;;;;;;775.72;103.10;;;;;;;9.63;100.00;97021.69;5002859;28;20497;-62
2021/01/04 05:40:32;;;;;;;699.30;161.32;;;;;;;9.71;100.00;97018.72;5002916;28;20073;-61
2021/01/04 05:43:18;;;;;;;1003.28;248.00;;;;;;;9.63;100.00;97011.44;4992108;28;20108;-63
2021/01/04 05:45:53;;;;;;;1130.13;242.80;;;;;;;9.64;100.00;97003.94;5002709;28;20128;-62
2021/01/04 05:48:56;;;;;;;958.10;205.85;;;;;;;9.64;100.00;96998.44;5004263;28;20034;-62
2021/01/04 05:51:30;;;;;;;783.25;184.73;;;;;;;9.40;100.00;97007.81;5004649;28;20042;-62
2021/01/04 05:53:55;;;;;;;914.38;220.32;;;;;;;9.55;100.00;97009.69;5004385;28;20083;-62
2021/01/04 05:56:23;;;;;;;631.60;212.07;;;;;;;9.28;100.00;96947.13;5004079;28;20041;-63
2021/01/04 05:59:04;;;;;;;932.40;261.58;;;;;;;9.66;100.00;97005.19;5003115;28;20715;-63
2021/01/04 06:01:30;;;;;;;745.30;220.05;;;;;;;9.66;100.00;96999.66;5018642;28;20049;-63
2021/01/04 06:04:05;;;;;;;726.55;191.98;;;;;;;9.41;100.00;96998.34;5004468;28;20030;-61
2021/01/04 06:06:39;;;;;;;747.30;174.27;;;;;;;9.58;100.00;97002.66;5019372;28;20041;-62
2021/01/04 06:09:12;;;;;;;600.85;181.35;;;;;;;9.61;100.00;96991.63;5004601;28;20501;-62
2021/01/04 06:12:06;;;;;;;606.73;154.60;;;;;;;9.60;100.00;96989.25;5004564;28;20102;-62
2021/01/04 06:14:34;;;;;;;836.58;131.10;;;;;;;9.34;100.00;96981.63;4995736;28;20445;-63
2021/01/04 06:17:31;;;;;;;497.75;84.38;;;;;;;9.23;100.00;96994.44;4996697;28;20471;-64
2021/01/04 06:20:09;;;;;;;742.58;108.95;;;;;;;8.94;100.00;96970.91;5003247;28;20095;-60
2021/01/04 06:22:35;;;;;;;704.25;110.18;;;;;;;9.35;100.00;96997.03;5005568;28;20092;-63
2021/01/04 06:25:06;;;;;;;453.40;73.00;;;;;;;8.75;100.00;96942.47;5002926;28;20030;-64
2021/01/04 06:27:37;;;;;;;494.60;82.47;;;;;;;9.28;100.00;96988.59;4987952;28;20786;-65
2021/01/04 06:30:36;;;;;;;584.75;86.28;;;;;;;9.27;100.00;96953.84;5006863;28;20045;-65
2021/01/04 06:33:15;;;;;;;624.72;85.82;;;;;;;9.59;100.00;96982.94;4997187;28;20084;-70
2021/01/04 06:35:41;;;;;;;636.00;83.32;;;;;;;9.28;100.00;96933.31;5007228;28;20528;-62
2021/01/04 06:38:13;;;;;;;525.42;75.22;;;;;;;9.71;100.00;96985.53;5022387;28;20576;-65
2021/01/04 06:40:45;;;;;;;376.67;74.90;;;;;;;9.80;100.00;96988.06;5006890;28;20069;-62
2021/01/04 06:43:19;;;;;;;376.42;75.65;;;;;;;9.79;100.00;97009.41;5007834;28;20046;-68
2021/01/04 06:45:51;;;;;;;581.85;108.43;;;;;;;9.93;100.00;97003.31;5007259;28;20087;-67
2021/01/04 06:48:27;;;;;;;621.28;99.90;;;;;;;9.92;100.00;96997.00;5007782;28;20045;-64
2021/01/04 06:50:55;;;;;;;633.53;103.07;;;;;;;9.91;100.00;96995.38;5005773;28;20398;-63
2021/01/04 06:53:24;;;;;;;472.27;99.55;;;;;;;9.96;100.00;96986.78;5006117;28;20046;-70
2021/01/04 06:56:19;;;;;;;550.13;115.57;;;;;;;9.73;100.00;96977.66;5006896;28;20069;-64
2021/01/04 06:58:47;;;;;;;472.30;92.07;;;;;;;9.80;100.00;96975.03;5006305;28;20050;-65
2021/01/04 07:01:59;;;;;;;307.40;76.70;;;;;;;9.38;100.00;96904.28;4992206;28;20074;-64
2021/01/04 07:04:47;;;;;;;252.85;69.82;;;;;;;10.15;100.00;96983.19;5019450;28;20058;-66
2021/01/04 07:07:30;;;;;;;305.90;76.03;;;;;;;10.36;100.00;96978.03;4993871;28;20163;-62
2021/01/04 07:10:34;;;;;;;201.52;64.70;;;;;;;10.34;100.00;96986.72;5004860;28;20053;-68
2021/01/04 07:13:26;;;;;;;155.50;55.75;;;;;;;10.30;100.00;96985.84;5005097;28;20069;-63
2021/01/04 07:16:31;;;;;;;151.00;56.97;;;;;;;10.51;100.00;96985.41;5006168;28;20081;-66
2021/01/04 07:19:01;;;;;;;153.90;52.03;;;;;;;10.85;100.00;96989.88;4997980;28;20037;-62
2021/01/04 07:21:47;;;;;;;127.70;47.17;;;;;;;10.92;100.00;96984.47;5021163;28;20825;-64
2021/01/04 07:24:42;;;;;;;123.50;42.97;;;;;;;10.60;100.00;96989.53;5021248;28;20049;-64
2021/01/04 07:27:10;;;;;;;131.05;39.63;;;;;;;10.23;100.00;96985.72;5005122;28;20057;-62
2021/01/04 07:30:11;;;;;;;114.85;38.60;;;;;;;10.40;100.00;96988.00;5006237;28;20038;-66
2021/01/04 07:32:45;;;;;;;112.35;39.60;;;;;;;10.13;100.00;96986.34;4994670;28;20042;-64
2021/01/04 07:35:35;;;;;;;129.77;42.88;;;;;;;9.37;100.00;96820.59;5006036;28;20049;-65
2021/01/04 07:38:06;;;;;;;103.05;39.95;;;;;;;10.44;100.00;96980.56;5004218;28;20119;-66
2021/01/04 07:40:56;;;;;;;97.10;37.38;;;;;;;10.15;100.00;96972.94;5003202;28;20513;-62
2021/01/04 07:43:40;;;;;;;122.55;47.55;;;;;;;10.40;100.00;96968.59;5006918;28;20112;-68
2021/01/04 07:46:47;;;;;;;96.35;40.28;;;;;;;9.38;100.00;96789.00;5006577;28;20045;-66
2021/01/04 07:49:37;;;;;;;89.18;38.35;;;;;;;10.40;100.00;96960.31;5006267;28;20045;-69
2021/01/04 07:52:38;;;;;;;87.13;34.50;;;;;;;10.20;100.00;96956.03;5005307;28;20033;-70
2021/01/04 07:55:17;;;;;;;82.20;32.88;;;;;;;10.10;100.00;96948.31;4996731;28;20034;-68
2021/01/04 07:57:50;;;;;;;86.00;41.33;;;;;;;10.38;100.00;96937.75;5005731;28;20485;-70
2021/01/04 08:00:36;;;;;;;95.15;45.80;;;;;;;10.64;100.00;96948.00;5002546;28;21287;-70
2021/01/04 08:03:19;;;;;;;89.22;39.20;;;;;;;10.77;100.00;96949.41;5010499;28;20535;-70
2021/01/04 08:06:18;;;;;;;70.20;33.05;;;;;;;10.90;100.00;96938.88;5005630;28;20038;-73
2021/01/04 08:08:47;;;;;;;76.07;35.45;;;;;;;10.97;100.00;96941.78;5003154;28;20596;-77
2021/01/04 08:11:28;;;;;;;82.65;37.60;;;;;;;10.97;100.00;96941.78;4994190;28;20030;-66
2021/01/04 08:14:18;;;;;;;77.60;36.85;;;;;;;11.17;100.00;96940.44;5006179;28;20516;-71
2021/01/04 08:16:51;;;;;;;78.85;37.35;;;;;;;11.30;100.00;96945.34;5004295;28;20508;-69
2021/01/04 08:19:18;;;;;;;86.13;40.08;;;;;;;11.38;100.00;96935.94;5020004;28;20053;-71
2021/01/04 08:21:44;;;;;;;81.63;38.42;;;;;;;11.49;100.00;96938.88;5004866;28;20044;-72
2021/01/04 08:24:18;;;;;;;102.15;49.17;;;;;;;11.56;100.00;96938.94;5005156;28;20034;-66
2021/01/04 08:26:59;;;;;;;101.25;52.92;;;;;;;11.61;100.00;96933.06;5003473;28;20072;-67
2021/01/04 08:29:59;;;;;;;78.85;38.35;;;;;;;11.63;100.00;96931.53;5003420;28;20050;-68
2021/01/04 08:32:54;;;;;;;78.03;37.85;;;;;;;11.74;100.00;96935.22;5001771;28;20057;-64
2021/01/04 08:35:25;;;;;;;85.05;42.90;;;;;;;11.77;100.00;96925.34;4991567;28;20194;-62
2021/01/04 08:37:50;;;;;;;99.10;55.97;;;;;;;11.70;100.00;96911.38;4999893;28;20026;-62
2021/01/04 08:40:25;;;;;;;87.63;44.65;;;;;;;11.85;100.00;96915.91;5002143;28;20417;-61
2021/01/04 08:43:11;;;;;;;87.63;48.53;;;;;;;11.95;100.00;96912.41;4995680;28;20064;-65
2021/01/04 08:45:46;;;;;;;105.55;59.30;;;;;;;11.91;100.00;96906.84;5004816;28;20061;-62
2021/01/04 08:48:20;;;;;;;86.68;52.70;;;;;;;10.89;100.00;96735.03;5005219;28;20037;-71
2021/01/04 08:51:02;;;;;;;74.18;37.03;;;;;;;11.68;100.00;96877.69;5004150;28;20037;-65
2021/01/04 08:53:27;;;;;;;74.15;37.35;;;;;;;11.79;100.00;96895.25;5003396;28;20046;-69
2021/01/04 08:56:23;;;;;;;68.63;36.70;;;;;;;11.79;100.00;96900.78;5004462;28;20025;-65
2021/01/04 08:58:50;;;;;;;72.93;36.75;;;;;;;11.30;100.00;96819.81;4994039;28;20052;-69
2021/01/04 09:01:24;;;;;;;66.15;35.15;;;;;;;11.76;100.00;96896.00;5004656;28;20064;-65
2021/01/04 09:04:01;;;;;;;65.68;33.67;;;;;;;11.55;100.00;96834.72;5004085;28;20129;-65
2021/01/04 09:06:33;;;;;;;70.95;35.75;;;;;;;11.76;100.00;96884.91;5004773;28;20076;-64
2021/01/04 09:09:14;;;;;;;73.28;40.10;;;;;;;11.86;100.00;96881.41;4990523;28;20041;-61
2021/01/04 09:12:00;;;;;;;96.13;50.38;;;;;;;11.21;100.00;96763.84;4985215;28;20046;-62
2021/01/04 09:14:47;;;;;;;76.80;45.08;;;;;;;11.84;100.00;96881.00;4995598;28;20412;-66
2021/01/04 09:17:32;;;;;;;72.93;38.45;;;;;;;11.76;100.00;96879.34;5003143;28;20029;-64
2021/01/04 09:20:31;;;;;;;71.95;40.03;;;;;;;11.74;100.00;96873.38;5003530;28;20045;-70
2021/01/04 09:23:18;;;;;;;71.80;36.55;;;;;;;11.84;100.00;96864.34;5005160;28;20092;-66
2021/01/04 09:25:54;;;;;;;64.53;35.05;;;;;;;11.90;100.00;96868.38;5003206;28;20038;-64
2021/01/04 09:28:23;;;;;;;88.03;43.40;;;;;;;11.83;100.00;96851.66;5004474;28;20026;-64
2021/01/04 09:30:50;;;;;;;96.13;50.15;;;;;;;11.39;100.00;96798.91;5001344;28;20472;-64
2021/01/04 09:33:21;;;;;;;62.72;32.17;;;;;;;11.87;100.00;96872.69;5004486;28;20397;-64
2021/01/04 09:35:48;;;;;;;74.72;36.78;;;;;;;11.84;100.00;96867.09;4988567;28;20065;-66
2021/01/04 09:38:22;;;;;;;62.25;33.55;;;;;;;11.78;100.00;96869.44;5002694;28;20040;-68
2021/01/04 09:40:54;;;;;;;68.22;36.85;;;;;;;11.63;100.00;96869.69;4999856;28;20137;-66
2021/01/04 09:43:31;;;;;;;87.68;44.53;;;;;;;11.48;100.00;96829.09;5003549;28;20025;-65
2021/01/04 09:46:11;;;;;;;76.70;42.70;;;;;;;11.67;100.00;96843.59;5002172;28;20059;-70
2021/01/04 09:48:45;;;;;;;93.45;54.58;;;;;;;11.40;100.00;96792.16;5004061;28;20049;-63
2021/01/04 09:51:15;;;;;;;62.78;35.97;;;;;;;11.52;100.00;96785.56;5004216;28;20030;-65
2021/01/04 09:53:43;;;;;;;58.20;29.95;;;;;;;11.87;100.00;96830.28;5002111;28;20057;-67
2021/01/04 09:56:12;;;;;;;83.40;46.20;;;;;;;9.81;100.00;96491.78;5003771;28;20046;-66
2021/01/04 09:58:41;;;;;;;56.60;30.98;;;;;;;11.84;100.00;96808.84;5004211;28;20077;-69
2021/01/04 10:01:06;;;;;;;57.33;26.90;;;;;;;12.00;100.00;96828.78;5003871;28;20040;-69
2021/01/04 10:03:32;;;;;;;70.75;35.90;;;;;;;11.71;100.00;96790.91;5005371;28;20093;-69
2021/01/04 10:05:57;;;;;;;64.65;34.38;;;;;;;11.99;100.00;96821.66;5007415;28;20112;-68
2021/01/04 10:08:26;;;;;;;58.28;30.85;;;;;;;11.95;100.00;96865.22;5008051;28;20148;-63
2021/01/04 10:11:02;;;;;;;49.00;26.90;;;;;;;11.90;100.00;96813.66;5007200;28;20040;-69
2021/01/04 10:13:30;;;;;;;72.93;36.20;;;;;;;11.89;100.00;96805.72;5007391;28;20057;-63
2021/01/04 10:15:58;;;;;;;53.92;27.38;;;;;;;11.84;99.57;96809.63;5007777;28;20030;-64
2021/01/04 10:18:52;;;;;;;39.75;21.85;;;;;;;11.24;97.86;96688.25;5008266;28;20050;-63
2021/01/04 10:21:31;;;;;;;43.72;26.17;;;;;;;11.40;97.50;96727.59;5007448;28;20080;-66
2021/01/04 10:24:25;;;;;;;64.20;35.97;;;;;;;11.83;99.13;96785.03;5007589;28;20050;-64
2021/01/04 10:26:51;;;;;;;63.60;40.67;;;;;;;11.70;97.80;96769.88;5006839;28;20108;-62
2021/01/04 10:29:21;;;;;;;38.90;19.50;;;;;;;11.72;97.27;96767.53;5007055;28;20894;-65
2021/01/04 10:31:48;;;;;;;43.67;17.30;;;;;;;11.73;97.41;96763.56;5002841;28;20149;-63
2021/01/04 10:34:19;;;;;;;38.17;19.88;;;;;;;11.73;97.85;96771.88;5003861;28;20064;-65
2021/01/04 10:37:13;;;;;;;37.10;17.73;;;;;;;11.60;98.01;96749.16;5005477;28;20092;-66
2021/01/04 10:39:39;;;;;;;39.70;18.10;;;;;;;11.43;97.63;96732.38;5004618;28;20057;-61
2021/01/04 10:42:13;;;;;;;44.45;19.08;;;;;;;11.49;97.74;96741.94;5019948;28;20112;-59
2021/01/04 10:44:39;;;;;;;41.53;18.55;;;;;;;11.70;96.93;96761.53;5006496;28;20046;-62
2021/01/04 10:47:20;;;;;;;36.63;16.27;;;;;;;11.73;96.42;96735.81;5000857;28;20132;-60
2021/01/04 10:49:46;;;;;;;41.75;18.20;;;;;;;11.69;96.31;96735.00;5005113;28;20103;-59
2021/01/04 10:52:23;;;;;;;37.78;18.15;;;;;;;11.70;97.07;96731.03;5013296;28;20034;-60
2021/01/04 10:54:49;;;;;;;37.45;21.67;;;;;;;11.66;95.86;96741.31;5006112;28;20031;-61
2021/01/04 10:57:30;;;;;;;37.22;18.63;;;;;;;11.70;94.58;96719.94;5021056;28;20403;-68
2021/01/04 11:00:20;;;;;;;44.33;25.10;;;;;;;11.77;94.09;96725.53;5006660;28;20050;-65
2021/01/04 11:02:48;;;;;;;44.20;20.17;;;;;;;10.70;94.04;96606.59;5007534;28;20034;-65
2021/01/04 11:05:19;;;;;;;42.22;22.83;;;;;;;11.80;92.61;96714.47;5006656;28;20566;-61
2021/01/04 11:07:46;;;;;;;28.95;15.18;;;;;;;11.67;92.85;96692.97;5007205;28;20037;-62
2021/01/04 11:10:13;;;;;;;29.25;16.10;;;;;;;11.79;92.61;96698.22;5000822;28;20034;-68
2021/01/04 11:12:47;;;;;;;30.25;11.88;;;;;;;11.47;91.21;96650.00;5006586;28;20071;-65
2021/01/04 11:15:25;;;;;;;32.90;12.82;;;;;;;9.87;90.27;96369.34;5020492;28;20500;-65
2021/01/04 11:18:07;;;;;;;39.25;16.45;;;;;;;11.89;91.86;96689.13;5006455;28;20524;-63
2021/01/04 11:20:35;;;;;;;53.85;29.75;;;;;;;11.25;92.23;96598.34;5006635;28;20030;-64
2021/01/04 11:23:09;;;;;;;37.42;14.48;;;;;;;11.80;92.19;96685.91;5007035;28;20551;-60
2021/01/04 11:25:35;;;;;;;40.50;17.30;;;;;;;11.77;94.26;96678.38;5006386;28;20049;-62
2021/01/04 11:28:02;;;;;;;50.58;23.33;;;;;;;11.75;98.67;96669.63;5006624;28;20038;-62
2021/01/04 11:30:30;;;;;;;54.08;24.42;;;;;;;11.48;99.79;96634.94;5001864;28;20520;-70
2021/01/04 11:32:58;;;;;;;46.78;23.92;;;;;;;11.24;100.00;96663.28;5020850;28;20518;-65
2021/01/04 11:35:24;;;;;;;45.83;24.75;;;;;;;11.07;100.00;96644.53;5001534;28;20042;-64
2021/01/04 11:37:51;;;;;;;52.58;25.48;;;;;;;11.36;100.00;96660.22;4994033;28;20038;-63
2021/01/04 11:40:17;;;;;;;55.75;25.00;;;;;;;11.11;100.00;96659.22;5005570;28;20662;-63
2021/01/04 11:42:43;;;;;;;52.45;25.50;;;;;;;11.32;100.00;96653.81;5005348;28;20034;-62
2021/01/04 11:45:11;;;;;;;45.97;22.55;;;;;;;11.48;100.00;96654.34;4997903;28;20068;-63
2021/01/04 11:47:37;;;;;;;44.97;23.15;;;;;;;10.54;100.00;96514.66;4994978;28;20649;-65
2021/01/04 11:50:06;;;;;;;51.03;23.58;;;;;;;11.53;100.00;96637.34;5004711;28;20033;-60
2021/01/04 11:52:32;;;;;;;55.15;23.27;;;;;;;11.41;100.00;96640.44;5006122;28;20129;-60